createdAt,value
2022-12-19T00:03:11.667Z,-10.21
2022-12-19T00:08:17.828Z,-9.84
2022-12-19T00:13:20.309Z,-10.05
2022-12-19T00:18:22.656Z,-9.94
2022-12-19T00:23:24.991Z,-10.59
2022-12-19T00:28:27.441Z,-9.97
2022-12-19T00:33:29.857Z,-9.79
2022-12-19T00:38:33.250Z,-10.93
2022-12-19T00:43:36.809Z,-10.16
2022-12-19T00:48:39.119Z,-10.21
2022-12-19T00:53:41.430Z,-10.31
2022-12-19T00:58:47.151Z,-9.64
2022-12-19T01:04:19.120Z,-9.91
2022-12-19T01:09:12.943Z,-10.23
2022-12-19T01:14:22.293Z,-9.76
2022-12-19T01:19:27.207Z,-9.74
2022-12-19T01:24:29.501Z,-9.49
2022-12-19T01:29:33.532Z,-9.36
2022-12-19T01:34:37.793Z,-9.60
2022-12-19T01:39:40.012Z,-9.75
2022-12-19T01:45:08.431Z,-9.25
2022-12-19T01:50:16.435Z,-9.63
2022-12-19T01:55:19.924Z,-10.16
2022-12-19T02:00:24.024Z,-9.60
2022-12-19T02:05:26.599Z,-9.21
2022-12-19T02:10:28.946Z,-9.44
2022-12-19T02:15:37.316Z,-9.76
2022-12-19T02:21:01.981Z,-9.10
2022-12-19T02:26:14.981Z,-9.76
2022-12-19T02:31:27.123Z,-9.23
2022-12-19T02:36:42.664Z,-9.06
2022-12-19T02:41:51.863Z,-9.43
2022-12-19T02:46:59.318Z,-9.43
2022-12-19T02:52:20.601Z,-9.02
2022-12-19T02:57:30.539Z,-9.50
2022-12-19T03:03:18.498Z,-9.53
2022-12-19T03:08:25.585Z,-9.28
2022-12-19T03:13:35.881Z,-9.32
2022-12-19T03:18:38.641Z,-9.13
2022-12-19T03:23:41.591Z,-9.66
2022-12-19T03:28:54.403Z,-8.96
2022-12-19T03:34:00.066Z,-9.17
2022-12-19T03:39:04.857Z,-9.55
2022-12-19T03:44:08.200Z,-9.76
2022-12-19T03:49:11.190Z,-9.26
2022-12-19T03:54:19.476Z,-9.40
2022-12-19T03:59:38.252Z,-9.30
2022-12-19T04:04:43.196Z,-9.17
2022-12-19T04:09:48.726Z,-9.41
2022-12-19T04:14:51.750Z,-9.25
2022-12-19T04:20:07.896Z,-8.96
2022-12-19T04:25:13.485Z,-9.13
2022-12-19T04:30:17.542Z,-9.27
2022-12-19T04:35:19.851Z,-9.49
2022-12-19T04:40:23.969Z,-9.24
2022-12-19T04:45:29.169Z,-9.30
2022-12-19T04:50:33.486Z,-9.46
2022-12-19T04:55:35.727Z,-9.35
2022-12-19T05:00:37.972Z,-9.35
2022-12-19T05:05:40.284Z,-8.98
2022-12-19T05:10:42.929Z,-9.24
2022-12-19T05:15:56.421Z,-9.28
2022-12-19T05:20:58.905Z,-8.90
2022-12-19T05:26:02.319Z,-8.64
2022-12-19T05:31:20.038Z,-9.30
2022-12-19T05:36:26.423Z,-9.19
2022-12-19T05:41:31.459Z,-8.75
2022-12-19T05:46:33.819Z,-8.58
2022-12-19T05:51:36.070Z,-8.59
2022-12-19T05:56:38.312Z,-8.66
2022-12-19T06:01:41.028Z,-9.06
2022-12-19T06:06:43.371Z,-8.70
2022-12-19T06:11:45.527Z,-8.77
2022-12-19T06:16:48.401Z,-8.22
2022-12-19T06:21:50.791Z,-8.55
2022-12-19T06:26:53.055Z,-8.44
2022-12-19T06:31:56.031Z,-8.97
2022-12-19T06:36:58.305Z,-8.71
2022-12-19T06:42:19.030Z,-8.15
2022-12-19T06:47:22.503Z,-8.02
2022-12-19T06:52:24.785Z,-8.19
2022-12-19T06:57:27.060Z,-8.47
2022-12-19T07:02:31.259Z,-8.09
2022-12-19T07:07:34.011Z,-7.82
2022-12-19T07:12:36.621Z,-7.76
2022-12-19T07:17:39.271Z,-7.67
2022-12-19T07:22:41.945Z,-8.17
2022-12-19T07:27:45.054Z,-7.80
2022-12-19T07:32:47.298Z,-8.24
2022-12-19T07:37:50.874Z,-7.99
2022-12-19T07:42:53.126Z,-7.85
2022-12-19T07:47:55.564Z,-7.63
2022-12-19T07:52:58.694Z,-7.51
2022-12-19T07:58:01.007Z,-7.36
2022-12-19T08:03:03.478Z,-8.55
2022-12-19T08:08:10.263Z,-7.65
2022-12-19T08:13:13.757Z,-8.25
2022-12-19T08:18:15.981Z,-7.16
2022-12-19T08:23:18.263Z,-7.33
2022-12-19T08:28:20.558Z,-7.21
2022-12-19T08:33:22.783Z,-6.89
2022-12-19T08:38:24.993Z,-7.27
2022-12-19T08:43:28.044Z,-6.74
2022-12-19T08:48:31.811Z,-6.89
2022-12-19T08:53:37.641Z,-8.49
2022-12-19T08:58:41.714Z,-7.05
2022-12-19T09:04:08.834Z,-6.91
2022-12-19T09:09:07.370Z,-6.55
2022-12-19T09:14:12.009Z,-6.78
2022-12-19T09:19:17.194Z,-6.79
2022-12-19T09:24:19.815Z,-6.75
2022-12-19T09:29:22.513Z,-6.55
2022-12-19T09:34:38.116Z,-6.85
2022-12-19T09:39:41.164Z,-6.50
2022-12-19T09:44:53.435Z,-6.26
2022-12-19T09:49:55.850Z,-6.69
2022-12-19T09:55:04.312Z,-6.41
2022-12-19T10:00:15.947Z,-6.12
2022-12-19T10:07:11.013Z,-6.07
2022-12-19T10:12:43.157Z,-6.28
2022-12-19T10:17:22.099Z,-6.41
2022-12-19T10:22:38.715Z,-5.97
2022-12-19T10:28:00.456Z,-6.23
2022-12-19T10:33:30.169Z,-5.86
2022-12-19T10:38:34.799Z,-5.85
2022-12-19T10:43:54.029Z,-5.81
2022-12-19T10:48:56.282Z,-5.96
2022-12-19T10:54:00.535Z,-5.87
2022-12-19T10:59:03.408Z,-5.97
2022-12-19T11:04:32.161Z,-5.62
2022-12-19T11:09:38.483Z,-5.60
2022-12-19T11:21:20.072Z,-5.82
2022-12-19T11:29:38.399Z,-5.48
2022-12-19T11:30:05.877Z,-5.90
2022-12-19T11:36:39.836Z,-5.54
2022-12-19T11:41:48.908Z,-5.55
2022-12-19T11:47:33.103Z,-5.39
2022-12-19T11:53:05.965Z,-5.36
2022-12-19T11:58:11.743Z,-5.55
2022-12-19T12:03:29.623Z,-5.19
2022-12-19T12:11:53.431Z,-5.44
2022-12-19T12:24:56.060Z,-5.47
2022-12-19T12:31:10.256Z,-5.11
2022-12-19T12:31:51.871Z,-5.09
2022-12-19T12:35:33.641Z,-5.03
2022-12-19T12:42:33.466Z,-5.00
2022-12-19T12:47:36.465Z,-5.29
2022-12-19T12:52:44.624Z,-5.29
2022-12-19T12:57:46.914Z,-5.03
2022-12-19T13:03:05.250Z,-4.82
2022-12-19T13:08:44.401Z,-4.78
2022-12-19T13:13:58.378Z,-4.77
2022-12-19T13:19:19.577Z,-4.84
2022-12-19T13:24:23.565Z,-6.44
2022-12-19T13:29:32.991Z,-6.28
2022-12-19T13:34:38.262Z,-4.60
2022-12-19T13:40:18.504Z,-4.78
2022-12-19T13:45:29.068Z,-4.99
2022-12-19T13:50:35.112Z,-5.13
2022-12-19T13:55:40.180Z,-4.55
2022-12-19T14:00:43.442Z,-4.90
2022-12-19T14:06:17.345Z,-4.86
2022-12-19T14:11:37.673Z,-4.79
2022-12-19T14:16:40.206Z,-5.12
2022-12-19T14:22:04.707Z,-4.54
2022-12-19T14:28:20.125Z,-4.62
2022-12-19T14:33:40.997Z,-4.69
2022-12-19T14:39:19.846Z,-4.56
2022-12-19T14:43:59.872Z,-4.30
2022-12-19T14:53:27.802Z,-4.41
2022-12-19T14:59:49.398Z,-4.24
2022-12-19T15:05:04.335Z,-4.46
2022-12-19T15:11:03.854Z,-4.44
2022-12-19T15:15:55.351Z,-4.16
2022-12-19T15:20:59.568Z,-4.57
2022-12-19T15:26:08.569Z,-5.26
2022-12-19T15:31:24.642Z,-4.38
2022-12-19T15:36:27.069Z,-4.45
2022-12-19T15:41:29.915Z,-4.49
2022-12-19T15:46:33.025Z,-4.40
2022-12-19T15:51:35.753Z,-4.48
2022-12-19T15:56:41.235Z,-4.29
2022-12-19T16:01:43.705Z,-4.25
2022-12-19T16:06:46.177Z,-4.74
2022-12-19T16:11:49.940Z,-4.24
2022-12-19T16:16:55.834Z,-4.09
2022-12-19T16:21:58.767Z,-3.83
2022-12-19T16:27:01.312Z,-3.99
2022-12-19T16:32:06.633Z,-3.77
2022-12-19T16:37:09.203Z,-4.01
2022-12-19T16:42:16.655Z,-4.09
2022-12-19T16:47:18.969Z,-3.95
2022-12-19T16:52:21.347Z,-3.95
2022-12-19T16:57:23.623Z,-3.96
2022-12-19T17:02:39.722Z,-3.85
2022-12-19T17:07:42.234Z,-4.04
2022-12-19T17:12:45.548Z,-3.74
2022-12-19T17:17:48.111Z,-4.32
2022-12-19T17:22:50.488Z,-4.20
2022-12-19T17:27:54.547Z,-4.01
2022-12-19T17:32:57.230Z,-3.90
2022-12-19T17:38:00.039Z,-3.93
2022-12-19T17:43:03.585Z,-3.83
2022-12-19T17:48:10.146Z,-3.59
2022-12-19T17:53:16.354Z,-3.80
2022-12-19T17:58:21.867Z,-3.96
2022-12-19T18:03:26.617Z,-3.74
2022-12-19T18:08:32.346Z,-3.73
2022-12-19T18:13:35.641Z,-3.53
2022-12-19T18:18:38.272Z,-3.78
2022-12-19T18:23:43.416Z,-3.76
2022-12-19T18:28:46.023Z,-3.76
2022-12-19T18:33:51.998Z,-3.86
2022-12-19T18:38:57.513Z,-3.74
2022-12-19T18:44:01.741Z,-3.66
2022-12-19T18:49:07.119Z,-3.66
2022-12-19T18:54:21.922Z,-3.50
2022-12-19T18:59:28.660Z,-3.49
2022-12-19T19:04:37.552Z,-3.84
2022-12-19T19:09:41.760Z,-3.87
2022-12-19T19:15:06.315Z,-3.90
2022-12-19T19:20:09.226Z,-3.65
2022-12-19T19:25:17.484Z,-3.52
2022-12-19T19:30:20.617Z,-3.58
2022-12-19T19:35:24.786Z,-3.56
2022-12-19T19:40:27.486Z,-3.70
2022-12-19T19:45:31.188Z,-3.59
2022-12-19T19:50:33.524Z,-3.74
2022-12-19T19:55:35.874Z,-4.74
2022-12-19T20:00:38.211Z,-4.23
2022-12-19T20:05:40.481Z,-3.81
2022-12-19T20:10:42.735Z,-3.69
2022-12-19T20:15:49.764Z,-3.69
2022-12-19T20:20:52.451Z,-3.70
2022-12-19T20:25:54.717Z,-3.71
2022-12-19T20:30:57.615Z,-3.74
2022-12-19T20:36:08.435Z,-3.74
2022-12-19T20:41:10.774Z,-3.53
2022-12-19T20:46:15.502Z,-3.77
2022-12-19T20:51:19.452Z,-4.41
2022-12-19T20:56:23.530Z,-3.83
2022-12-19T21:01:25.973Z,-3.94
2022-12-19T21:06:28.632Z,-3.82
2022-12-19T21:11:31.076Z,-3.77
2022-12-19T21:16:33.413Z,-3.69
2022-12-19T21:21:35.780Z,-4.10
2022-12-19T21:26:38.174Z,-4.10
2022-12-19T21:31:40.547Z,-3.93
2022-12-19T21:36:42.803Z,-4.16
2022-12-19T21:41:45.102Z,-3.82
2022-12-19T21:46:47.366Z,-4.02
2022-12-19T21:51:49.886Z,-3.87
2022-12-19T21:56:52.100Z,-4.02
2022-12-19T22:01:54.590Z,-3.75
2022-12-19T22:06:57.008Z,-3.87
2022-12-19T22:11:59.434Z,-3.96
2022-12-19T22:17:01.632Z,-3.95
2022-12-19T22:22:04.260Z,-3.96
2022-12-19T22:27:06.531Z,-4.74
2022-12-19T22:32:08.784Z,-3.92
2022-12-19T22:37:11.037Z,-3.83
2022-12-19T22:42:13.340Z,-4.06
2022-12-19T22:47:15.563Z,-4.23
2022-12-19T22:52:17.829Z,-4.47
2022-12-19T22:57:21.733Z,-4.55
2022-12-19T23:02:24.154Z,-4.27
2022-12-19T23:07:26.491Z,-4.06
2022-12-19T23:12:28.686Z,-4.21
2022-12-19T23:17:31.067Z,-4.20
2022-12-19T23:22:33.336Z,-4.92
2022-12-19T23:27:35.840Z,-4.27
2022-12-19T23:32:38.161Z,-4.66
2022-12-19T23:37:40.461Z,-4.52
2022-12-19T23:42:42.615Z,-4.70
2022-12-19T23:47:47.128Z,-4.12
2022-12-19T23:52:49.297Z,-4.43
2022-12-19T23:57:51.607Z,-4.52
